Terminal Aerodrome Forecast
Issued by NWS Cleveland, OH

Home | Current Version | Previous Version | Text Only | Print | Product List | Glossary On
Versions: 1 2 3 4 5 6 7 8 9 10 11 12 13 14 15 16 17
000
FTUS41 KCLE 212352
TAFTOL
TAF
KTOL 212352Z 2200/2224 00000KT 1/4SM FG VV002
     FM220600 17003KT 1SM BR OVC003
      TEMPO 2207/2209 3SM -SHRA OVC010
     FM220900 17005KT 3SM -SHRA BR OVC010 WS020/21035KT
     FM221300 17007KT P6SM OVC020 WS020/21040KT
     FM222100 19010KT 3SM -RA BR OVC007=

USA.gov is the U.S. government's official web portal to all federal, state and local government web resources and services.